Time;durP1;ratioP1;P1;durP2;ratioP2;P2;SDS_P1;SDS_P2;PMS_P1;PMS_P2;Temp;Humidity;BMP_temperature;BMP_pressure;BME280_temperature;BME280_humidity;BME280_pressure;Samples;Min_cycle;Max_cycle;Signal;HPM_P1;HPM_P2
2022/08/31 00:04:51;;;;;;;8.00;5.37;;;23.80;80.40;;;;;;5073158;28;20443;-64
2022/08/31 00:07:18;;;;;;;5.27;4.77;;;23.80;81.30;;;;;;5073271;28;20452;-64
2022/08/31 00:09:47;;;;;;;5.20;4.57;;;23.80;81.10;;;;;;5073225;28;20543;-64
2022/08/31 00:12:14;;;;;;;7.30;5.40;;;23.70;82.90;;;;;;5073294;28;20483;-64
2022/08/31 00:14:43;;;;;;;7.87;5.07;;;23.70;80.80;;;;;;5073175;28;20470;-64
2022/08/31 00:17:10;;;;;;;6.13;4.87;;;23.60;81.40;;;;;;5073065;28;20444;-65
2022/08/31 00:19:37;;;;;;;5.10;4.60;;;23.60;82.50;;;;;;5072860;28;20823;-64
2022/08/31 00:22:04;;;;;;;5.00;4.40;;;23.50;82.80;;;;;;5072823;28;20464;-64
2022/08/31 00:24:32;;;;;;;5.83;4.37;;;23.60;83.10;;;;;;5073074;28;20449;-64
2022/08/31 00:27:01;;;;;;;4.90;4.50;;;23.50;82.50;;;;;;5072819;28;20559;-64
2022/08/31 00:29:28;;;;;;;6.30;5.03;;;23.30;82.90;;;;;;5073148;28;20444;-64
2022/08/31 00:31:55;;;;;;;5.90;5.40;;;23.30;83.80;;;;;;5072641;28;20468;-64
2022/08/31 00:34:25;;;;;;;5.30;4.80;;;23.30;84.10;;;;;;5073092;28;20448;-64
2022/08/31 00:36:52;;;;;;;5.80;5.20;;;23.50;84.70;;;;;;5073172;28;20486;-64
2022/08/31 00:39:21;;;;;;;6.50;5.00;;;23.50;84.20;;;;;;5072840;28;20562;-64
2022/08/31 00:41:48;;;;;;;5.93;4.67;;;23.40;83.90;;;;;;5072894;28;20484;-64
2022/08/31 00:44:17;;;;;;;8.67;4.40;;;23.20;84.10;;;;;;5073044;28;20448;-64
2022/08/31 00:46:44;;;;;;;5.43;4.93;;;23.40;85.00;;;;;;5072476;28;20479;-64
2022/08/31 00:49:15;;;;;;;4.70;4.30;;;23.40;86.40;;;;;;5072542;28;20540;-65
2022/08/31 00:51:45;;;;;;;6.53;5.67;;;;;;;;;;5072951;28;20472;-65
2022/08/31 00:54:15;;;;;;;5.87;5.17;;;23.00;91.20;;;;;;5072630;28;20945;-63
2022/08/31 00:56:43;;;;;;;6.00;5.23;;;22.90;91.90;;;;;;5072771;28;20496;-64
2022/08/31 00:59:12;;;;;;;6.17;5.20;;;22.80;92.70;;;;;;5072682;28;20479;-64
2022/08/31 01:01:41;;;;;;;7.90;5.97;;;22.90;93.80;;;;;;5072766;28;20466;-64
2022/08/31 01:04:08;;;;;;;9.30;6.07;;;22.60;96.20;;;;;;5072378;28;20448;-64
2022/08/31 01:06:37;;;;;;;19.00;9.07;;;22.40;98.40;;;;;;5074566;28;20439;-64
2022/08/31 01:09:06;;;;;;;10.60;7.67;;;21.80;99.90;;;;;;5076406;28;20858;-63
2022/08/31 01:11:34;;;;;;;13.13;7.90;;;21.50;99.90;;;;;;5076108;28;20476;-63
2022/08/31 01:14:02;;;;;;;10.90;9.10;;;21.00;99.90;;;;;;5076165;28;20553;-63
2022/08/31 01:16:35;;;;;;;12.97;9.00;;;20.80;99.90;;;;;;5075912;28;20448;-63
2022/08/31 01:19:10;;;;;;;16.80;8.47;;;20.50;99.90;;;;;;5076179;28;20465;-63
2022/08/31 01:21:43;;;;;;;12.93;8.77;;;20.40;99.90;;;;;;5076025;28;20547;-63
2022/08/31 01:24:12;;;;;;;11.60;8.47;;;;;;;;;;5076040;28;20437;-65
2022/08/31 01:26:40;;;;;;;11.80;6.73;;;20.20;99.90;;;;;;5075937;28;20455;-63
2022/08/31 01:29:07;;;;;;;13.93;8.03;;;20.30;99.90;;;;;;5076061;28;20532;-63
2022/08/31 01:31:38;;;;;;;12.13;8.13;;;20.40;99.90;;;;;;5075492;28;20467;-63
2022/08/31 01:34:06;;;;;;;11.77;7.30;;;20.10;99.90;;;;;;5075884;28;20429;-64
2022/08/31 01:36:34;;;;;;;9.60;7.60;;;19.60;99.90;;;;;;5075627;28;20539;-63
2022/08/31 01:39:01;;;;;;;14.20;8.07;;;19.50;99.90;;;;;;5075626;28;20508;-63
2022/08/31 01:41:29;;;;;;;10.40;8.47;;;19.50;99.90;;;;;;5075464;28;20480;-63
2022/08/31 01:43:57;;;;;;;12.03;8.10;;;19.60;99.90;;;;;;5075722;28;20444;-63
2022/08/31 01:46:25;;;;;;;13.47;8.73;;;19.70;99.90;;;;;;5075055;28;20988;-63
2022/08/31 01:48:52;;;;;;;12.50;8.90;;;19.50;99.90;;;;;;5075559;28;20446;-63
2022/08/31 01:51:21;;;;;;;8.57;7.77;;;19.50;99.90;;;;;;5075438;28;20809;-63
2022/08/31 01:53:50;;;;;;;10.23;8.13;;;19.40;99.90;;;;;;5075247;28;20458;-63
2022/08/31 01:56:20;;;;;;;10.70;8.80;;;19.40;99.90;;;;;;5075441;28;20526;-63
2022/08/31 01:58:49;;;;;;;13.67;7.57;;;19.90;99.90;;;;;;5075655;28;20439;-63
2022/08/31 02:01:19;;;;;;;9.17;7.50;;;19.70;99.90;;;;;;5075393;28;20472;-63
2022/08/31 02:03:46;;;;;;;8.93;7.97;;;19.90;99.90;;;;;;5074969;28;20440;-63
2022/08/31 02:06:14;;;;;;;9.03;7.73;;;19.80;99.90;;;;;;5074894;28;20444;-64
2022/08/31 02:08:41;;;;;;;8.20;6.87;;;19.60;99.90;;;;;;5075320;28;20870;-65
2022/08/31 02:11:08;;;;;;;11.40;7.40;;;19.40;99.90;;;;;;5074833;28;20966;-63
2022/08/31 02:13:36;;;;;;;9.77;7.10;;;19.50;99.90;;;;;;5074975;28;20444;-63
2022/08/31 02:16:05;;;;;;;9.57;8.43;;;19.50;99.90;;;;;;5075130;28;20535;-63
2022/08/31 02:18:35;;;;;;;12.23;8.90;;;19.40;99.90;;;;;;5074532;28;20535;-63
2022/08/31 02:21:02;;;;;;;10.17;8.90;;;19.40;99.90;;;;;;5074798;28;20488;-63
2022/08/31 02:23:30;;;;;;;11.13;7.87;;;19.50;99.90;;;;;;5074837;28;20809;-63
2022/08/31 02:25:57;;;;;;;7.70;6.93;;;19.70;99.90;;;;;;5074655;28;20539;-63
2022/08/31 02:28:24;;;;;;;11.60;9.00;;;19.90;99.90;;;;;;5074460;28;20952;-63
2022/08/31 02:30:51;;;;;;;7.90;6.90;;;20.20;99.90;;;;;;5074632;28;20559;-63
2022/08/31 02:33:20;;;;;;;8.60;7.70;;;20.30;99.90;;;;;;5074804;28;20454;-64
2022/08/31 02:35:47;;;;;;;9.60;7.70;;;20.50;99.90;;;;;;5074299;28;20531;-63
2022/08/31 02:38:14;;;;;;;10.30;8.00;;;20.50;99.90;;;;;;5074540;28;20470;-63
2022/08/31 02:40:42;;;;;;;14.63;7.93;;;20.70;99.90;;;;;;5074426;28;20492;-63
2022/08/31 02:43:11;;;;;;;9.80;7.53;;;20.50;99.90;;;;;;5074449;28;20911;-63
2022/08/31 02:45:38;;;;;;;7.77;7.07;;;20.20;99.90;;;;;;5073833;28;20441;-63
2022/08/31 02:48:08;;;;;;;9.90;8.90;;;20.30;99.90;;;;;;5074248;28;20931;-63
2022/08/31 02:50:41;;;;;;;13.03;7.70;;;20.20;99.90;;;;;;5074364;28;20496;-63
2022/08/31 02:53:09;;;;;;;9.87;8.03;;;;;;;;;;5074363;28;20515;-65
2022/08/31 02:55:36;;;;;;;8.57;7.70;;;19.50;99.90;;;;;;5074246;28;20527;-63
2022/08/31 02:58:04;;;;;;;9.30;7.90;;;19.40;99.90;;;;;;5074238;28;20444;-63
2022/08/31 03:00:32;;;;;;;9.63;7.87;;;19.30;99.90;;;;;;5073966;28;20491;-63
2022/08/31 03:03:00;;;;;;;10.63;7.37;;;19.30;99.90;;;;;;5074122;28;20449;-64
2022/08/31 03:05:28;;;;;;;8.30;7.47;;;19.50;99.90;;;;;;5074147;28;20448;-64
2022/08/31 03:07:57;;;;;;;11.60;8.10;;;19.60;99.90;;;;;;5073981;28;20543;-65
2022/08/31 03:10:25;;;;;;;9.10;8.30;;;19.50;99.90;;;;;;5073767;28;20445;-63
2022/08/31 03:12:53;;;;;;;9.00;8.10;;;19.20;99.90;;;;;;5074032;28;20452;-63
2022/08/31 03:15:23;;;;;;;9.83;8.83;;;19.20;99.90;;;;;;5073978;28;20455;-63
2022/08/31 03:17:50;;;;;;;10.20;8.83;;;19.10;99.90;;;;;;5073838;28;20539;-63
2022/08/31 03:20:19;;;;;;;11.47;9.60;;;19.00;99.90;;;;;;5073535;28;20468;-63
2022/08/31 03:22:46;;;;;;;8.90;8.00;;;18.90;99.90;;;;;;5073887;28;20455;-63
2022/08/31 03:25:16;;;;;;;10.33;9.43;;;19.10;99.90;;;;;;5073742;28;20444;-63
2022/08/31 03:27:44;;;;;;;10.73;8.50;;;19.30;99.90;;;;;;5073292;28;20453;-63
2022/08/31 03:30:14;;;;;;;10.23;9.33;;;19.10;99.90;;;;;;5072905;28;20881;-63
2022/08/31 03:32:44;;;;;;;10.20;9.20;;;19.20;99.90;;;;;;5073437;28;20908;-63
2022/08/31 03:35:12;;;;;;;11.40;7.10;;;19.10;99.90;;;;;;5073505;28;20452;-63
2022/08/31 03:37:39;;;;;;;10.67;9.00;;;19.20;99.90;;;;;;5073672;28;20481;-63
2022/08/31 03:40:08;;;;;;;11.83;9.17;;;18.90;99.90;;;;;;5073528;28;20472;-63
2022/08/31 03:42:36;;;;;;;10.67;8.23;;;19.00;99.90;;;;;;5073480;28;20498;-63
2022/08/31 03:45:04;;;;;;;7.40;6.70;;;19.00;99.90;;;;;;5073207;28;20549;-63
2022/08/31 03:47:31;;;;;;;9.47;8.60;;;19.00;99.90;;;;;;5073109;28;20559;-63
2022/08/31 03:49:58;;;;;;;10.53;9.43;;;19.30;99.90;;;;;;5073121;28;20444;-65
2022/08/31 03:52:26;;;;;;;10.30;9.30;;;19.40;99.90;;;;;;5073029;28;20554;-63
2022/08/31 03:54:53;;;;;;;10.37;9.27;;;19.20;99.90;;;;;;5073195;28;20826;-63
2022/08/31 03:57:20;;;;;;;9.83;7.83;;;19.10;99.90;;;;;;5073051;28;20447;-63
2022/08/31 03:59:51;;;;;;;12.70;8.87;;;19.30;99.90;;;;;;5072930;28;20479;-65
2022/08/31 04:02:19;;;;;;;10.90;9.90;;;19.70;99.90;;;;;;5073377;28;20475;-63
2022/08/31 04:04:50;;;;;;;11.97;9.53;;;19.50;99.90;;;;;;5072927;28;20840;-63
2022/08/31 04:07:17;;;;;;;8.43;7.60;;;19.20;99.90;;;;;;5073250;28;20432;-64
2022/08/31 04:09:44;;;;;;;8.97;8.13;;;19.40;99.90;;;;;;5073071;28;20459;-63
2022/08/31 04:12:11;;;;;;;10.20;9.03;;;19.50;99.90;;;;;;5073346;28;20482;-63
2022/08/31 04:14:39;;;;;;;11.30;9.57;;;19.40;99.90;;;;;;5072899;28;20448;-65
2022/08/31 04:17:10;;;;;;;9.70;8.70;;;19.30;99.90;;;;;;5072870;28;20547;-63
2022/08/31 04:19:39;;;;;;;9.83;8.40;;;19.20;99.90;;;;;;5073229;28;20420;-63
2022/08/31 04:22:07;;;;;;;11.90;8.90;;;19.10;99.90;;;;;;5073044;28;20475;-64
2022/08/31 04:24:34;;;;;;;11.10;10.00;;;19.00;99.90;;;;;;5072762;28;20444;-63
2022/08/31 04:27:01;;;;;;;11.00;9.70;;;19.10;99.90;;;;;;5072888;28;20491;-63
2022/08/31 04:29:28;;;;;;;10.93;9.00;;;18.80;99.90;;;;;;5073018;28;20452;-63
2022/08/31 04:31:55;;;;;;;12.63;11.13;;;18.90;99.90;;;;;;5072944;28;20471;-63
2022/08/31 04:34:24;;;;;;;11.17;10.10;;;19.00;99.90;;;;;;5072817;28;20531;-63
2022/08/31 04:36:52;;;;;;;9.80;8.90;;;19.00;99.90;;;;;;5072994;28;20456;-63
2022/08/31 04:39:19;;;;;;;11.07;9.17;;;19.00;99.90;;;;;;5072933;28;20458;-63
2022/08/31 04:41:47;;;;;;;12.60;11.27;;;18.90;99.90;;;;;;5076873;28;20574;-64
2022/08/31 04:44:14;;;;;;;10.00;9.10;;;18.80;99.90;;;;;;5076318;28;20439;-63
2022/08/31 04:46:42;;;;;;;10.67;9.67;;;18.80;99.90;;;;;;5075347;28;20476;-63
2022/08/31 04:49:13;;;;;;;9.97;8.97;;;18.80;99.90;;;;;;5076780;28;20448;-63
2022/08/31 04:51:43;;;;;;;11.80;8.53;;;18.90;99.90;;;;;;5076726;28;20456;-63
2022/08/31 04:54:12;;;;;;;10.53;9.37;;;19.00;99.90;;;;;;5076546;28;20455;-65
2022/08/31 04:56:41;;;;;;;10.20;9.20;;;19.00;99.90;;;;;;5076474;28;20471;-64
2022/08/31 04:59:11;;;;;;;8.97;8.07;;;18.90;99.90;;;;;;5076781;28;20475;-65
2022/08/31 05:01:40;;;;;;;11.73;10.00;;;19.00;99.90;;;;;;5075902;28;20492;-65
2022/08/31 05:04:08;;;;;;;9.60;7.73;;;19.30;99.90;;;;;;5076252;28;20448;-65
2022/08/31 05:06:38;;;;;;;7.77;6.97;;;19.20;99.90;;;;;;5075959;28;20998;-63
2022/08/31 05:09:10;;;;;;;8.33;7.63;;;19.20;99.90;;;;;;5076390;28;20567;-63
2022/08/31 05:11:37;;;;;;;11.20;9.37;;;19.10;99.90;;;;;;5076201;28;20563;-64
2022/08/31 05:14:06;;;;;;;9.83;7.67;;;19.20;99.90;;;;;;5076089;28;20455;-64
2022/08/31 05:16:34;;;;;;;8.33;7.53;;;19.20;99.90;;;;;;5076243;28;20451;-65
2022/08/31 05:19:06;;;;;;;8.93;7.80;;;19.10;99.90;;;;;;5075794;28;20435;-64
2022/08/31 05:21:35;;;;;;;10.47;9.27;;;19.20;99.90;;;;;;5075571;28;20915;-64
2022/08/31 05:24:04;;;;;;;9.80;8.80;;;19.00;99.90;;;;;;5075928;28;20543;-65
2022/08/31 05:26:35;;;;;;;10.23;8.37;;;18.90;99.90;;;;;;5075769;28;20939;-65
2022/08/31 05:29:04;;;;;;;9.97;9.07;;;19.00;99.90;;;;;;5075925;28;20484;-64
2022/08/31 05:31:32;;;;;;;8.50;7.63;;;18.90;99.90;;;;;;5075535;28;20982;-64
2022/08/31 05:34:00;;;;;;;9.00;7.90;;;19.10;99.90;;;;;;5075534;28;20993;-64
2022/08/31 05:36:27;;;;;;;9.33;8.53;;;19.00;99.90;;;;;;5075453;28;20524;-64
2022/08/31 05:38:55;;;;;;;10.90;8.33;;;19.00;99.90;;;;;;5075346;28;20539;-64
2022/08/31 05:41:22;;;;;;;9.13;8.23;;;19.00;99.90;;;;;;5075577;28;20530;-64
2022/08/31 05:43:51;;;;;;;9.03;8.13;;;19.10;99.90;;;;;;5075465;28;20445;-65
2022/08/31 05:46:18;;;;;;;10.40;8.27;;;19.00;99.90;;;;;;5075270;28;20484;-65
2022/08/31 05:48:46;;;;;;;8.77;7.13;;;19.20;99.90;;;;;;5075631;28;20425;-64
2022/08/31 05:51:15;;;;;;;8.90;8.00;;;19.10;99.90;;;;;;5074683;28;20942;-64
2022/08/31 05:53:43;;;;;;;10.00;7.40;;;19.10;99.90;;;;;;5074981;28;20536;-65
2022/08/31 05:56:13;;;;;;;8.20;7.47;;;19.10;99.90;;;;;;5075065;28;20965;-65
2022/08/31 05:58:42;;;;;;;10.33;7.00;;;19.40;99.90;;;;;;5075425;28;20479;-67
2022/08/31 06:01:16;;;;;;;9.47;8.47;;;19.30;99.90;;;;;;5074664;28;20495;-66
2022/08/31 06:03:43;;;;;;;11.43;9.37;;;19.20;99.90;;;;;;5075072;28;20471;-64
2022/08/31 06:06:11;;;;;;;10.43;9.43;;;19.00;99.90;;;;;;5074867;28;20448;-64
2022/08/31 06:08:39;;;;;;;12.80;9.53;;;19.10;99.90;;;;;;5075294;28;20892;-64
2022/08/31 06:11:12;;;;;;;11.50;9.50;;;19.00;99.90;;;;;;5074741;28;20577;-64
2022/08/31 06:13:39;;;;;;;10.30;8.93;;;18.90;99.90;;;;;;5074875;28;20429;-64
2022/08/31 06:16:08;;;;;;;13.13;9.67;;;19.20;99.90;;;;;;5074688;28;20813;-65
2022/08/31 06:18:39;;;;;;;10.60;9.50;;;19.10;99.90;;;;;;5074925;28;20475;-63
2022/08/31 06:21:11;;;;;;;9.07;8.20;;;19.20;99.90;;;;;;5074423;28;20480;-64
2022/08/31 06:23:41;;;;;;;9.47;8.50;;;19.30;99.90;;;;;;5074299;28;20428;-64
2022/08/31 06:26:11;;;;;;;8.83;7.10;;;19.20;99.90;;;;;;5074462;28;20444;-65
2022/08/31 06:28:39;;;;;;;9.50;7.90;;;19.10;99.90;;;;;;5074442;28;20440;-63
2022/08/31 06:31:11;;;;;;;10.00;9.00;;;19.10;99.90;;;;;;5074268;28;20454;-65
2022/08/31 06:33:41;;;;;;;10.53;9.43;;;18.90;99.90;;;;;;5074779;28;20512;-65
2022/08/31 06:36:11;;;;;;;17.10;9.97;;;19.00;99.90;;;;;;5074693;28;20433;-66
2022/08/31 06:38:39;;;;;;;10.30;9.30;;;19.20;99.90;;;;;;5074183;28;20491;-65
2022/08/31 06:41:17;;;;;;;11.20;9.27;;;19.10;99.90;;;;;;5074289;28;20494;-63
2022/08/31 06:43:45;;;;;;;10.17;8.80;;;19.10;99.90;;;;;;5074427;28;20434;-64
2022/08/31 06:46:14;;;;;;;10.77;9.53;;;19.20;99.90;;;;;;5074223;28;20514;-63
2022/08/31 06:48:43;;;;;;;10.13;9.23;;;19.10;99.90;;;;;;5074185;28;20448;-63
2022/08/31 06:51:12;;;;;;;11.60;9.20;;;19.00;99.90;;;;;;5074031;28;20794;-63
2022/08/31 06:53:41;;;;;;;10.40;9.33;;;19.00;99.90;;;;;;5073997;28;20535;-63
2022/08/31 06:56:11;;;;;;;10.53;9.53;;;19.00;99.90;;;;;;5074091;28;20456;-64
2022/08/31 06:58:39;;;;;;;11.97;10.27;;;18.90;99.90;;;;;;5073859;28;20424;-63
2022/08/31 07:01:07;;;;;;;8.97;8.07;;;18.90;99.90;;;;;;5073687;28;20574;-64
2022/08/31 07:03:39;;;;;;;12.33;9.83;;;18.90;99.90;;;;;;5072398;28;20531;-64
2022/08/31 07:06:11;;;;;;;10.00;8.77;;;19.10;99.90;;;;;;5073484;28;20978;-63
2022/08/31 07:08:40;;;;;;;7.57;6.50;;;19.20;99.90;;;;;;5073860;28;20512;-63
2022/08/31 07:11:13;;;;;;;9.87;8.97;;;19.40;99.90;;;;;;5073685;28;20947;-63
2022/08/31 07:13:40;;;;;;;7.90;7.30;;;19.50;99.90;;;;;;5073259;28;20874;-63
2022/08/31 07:16:10;;;;;;;10.03;9.10;;;19.30;99.90;;;;;;5073139;28;20455;-63
2022/08/31 07:18:37;;;;;;;8.23;7.60;;;19.30;99.90;;;;;;5073461;28;20811;-63
2022/08/31 07:21:12;;;;;;;9.60;8.27;;;19.30;99.90;;;;;;5073140;28;21060;-63
2022/08/31 07:23:40;;;;;;;9.30;8.27;;;19.20;99.90;;;;;;5073277;28;20428;-63
2022/08/31 07:26:09;;;;;;;9.70;8.20;;;19.20;99.90;;;;;;5073550;28;20531;-63
2022/08/31 07:28:37;;;;;;;9.80;8.37;;;19.30;99.90;;;;;;5073645;28;20475;-63
2022/08/31 07:31:06;;;;;;;9.93;9.00;;;19.30;99.90;;;;;;5073121;28;20494;-65
2022/08/31 07:33:36;;;;;;;8.13;7.30;;;19.40;99.90;;;;;;5073246;28;20456;-63
2022/08/31 07:36:05;;;;;;;10.10;8.00;;;19.50;99.90;;;;;;5072866;28;20443;-64
2022/08/31 07:44:03;;;;;;;11.20;10.10;;;19.30;99.90;;;;;;5073258;28;20431;-65
2022/08/31 07:46:31;;;;;;;15.40;9.50;;;19.10;99.90;;;;;;5073084;28;20560;-64
2022/08/31 07:48:58;;;;;;;8.90;8.10;;;19.20;99.90;;;;;;5072867;28;21010;-65
2022/08/31 07:51:26;;;;;;;11.97;7.97;;;19.30;99.90;;;;;;5072823;28;20506;-64
2022/08/31 07:53:56;;;;;;;9.03;8.23;;;19.30;99.90;;;;;;5072845;28;20460;-65
2022/08/31 07:56:24;;;;;;;11.10;8.90;;;19.30;99.90;;;;;;5073309;28;20456;-64
2022/08/31 07:58:51;;;;;;;9.63;8.70;;;19.30;99.90;;;;;;5073315;28;20505;-64
2022/08/31 08:01:19;;;;;;;10.63;9.17;;;19.30;99.90;;;;;;5072626;28;20561;-65
2022/08/31 08:03:46;;;;;;;9.10;8.10;;;19.20;99.90;;;;;;5073074;28;20456;-64
2022/08/31 08:06:16;;;;;;;11.10;8.57;;;19.20;99.90;;;;;;5073056;28;20520;-64
2022/08/31 08:08:44;;;;;;;11.20;10.07;;;19.30;99.90;;;;;;5073164;28;20479;-63
2022/08/31 08:11:17;;;;;;;9.63;8.50;;;19.20;99.90;;;;;;5072687;28;20567;-64
2022/08/31 08:13:45;;;;;;;9.57;8.00;;;19.30;99.90;;;;;;5072865;28;20439;-63
2022/08/31 08:16:12;;;;;;;10.17;9.10;;;19.40;99.90;;;;;;5075979;28;20927;-63
2022/08/31 08:18:39;;;;;;;11.23;8.70;;;19.50;99.90;;;;;;5076903;28;20542;-65
2022/08/31 08:21:06;;;;;;;10.13;8.03;;;19.40;99.90;;;;;;5076692;28;20487;-64
2022/08/31 08:23:34;;;;;;;11.23;9.73;;;19.40;99.90;;;;;;5077087;28;20452;-63
2022/08/31 08:26:07;;;;;;;15.30;10.27;;;19.40;99.90;;;;;;5076746;28;20502;-64
2022/08/31 08:28:36;;;;;;;10.17;8.90;;;19.20;99.90;;;;;;5076441;28;20431;-63
2022/08/31 08:31:04;;;;;;;10.70;9.23;;;19.20;99.90;;;;;;5076238;28;20563;-64
2022/08/31 08:33:32;;;;;;;10.50;8.90;;;19.20;99.90;;;;;;5076716;28;20448;-65
2022/08/31 08:36:01;;;;;;;9.50;8.50;;;19.50;99.90;;;;;;5076464;28;20638;-65
2022/08/31 08:38:30;;;;;;;10.83;9.73;;;19.30;99.90;;;;;;5076829;28;20452;-64
2022/08/31 08:40:58;;;;;;;9.77;8.73;;;19.50;99.90;;;;;;5076331;28;20480;-65
2022/08/31 08:43:31;;;;;;;10.10;9.20;;;19.40;99.90;;;;;;5076414;28;20432;-65
2022/08/31 08:46:02;;;;;;;12.63;8.33;;;19.50;99.90;;;;;;5076229;28;20590;-65
2022/08/31 08:48:33;;;;;;;10.63;9.60;;;19.70;99.90;;;;;;5076623;28;20512;-65
2022/08/31 08:51:03;;;;;;;12.27;11.07;;;20.50;99.90;;;;;;5076555;28;20857;-64
2022/08/31 08:53:31;;;;;;;10.83;9.83;;;20.20;99.90;;;;;;5076276;28;20452;-64
2022/08/31 08:56:00;;;;;;;13.90;10.67;;;19.90;99.90;;;;;;5076164;28;20478;-63
2022/08/31 08:58:27;;;;;;;11.00;9.90;;;19.80;99.90;;;;;;5076563;28;20455;-64
2022/08/31 09:00:55;;;;;;;11.90;10.70;;;19.70;99.90;;;;;;5076088;28;20466;-63
2022/08/31 09:03:34;;;;;;;12.17;10.97;;;19.70;99.90;;;;;;5075746;28;20444;-64
2022/08/31 09:06:08;;;;;;;10.63;9.63;;;19.70;99.90;;;;;;5076187;28;20518;-65
2022/08/31 09:09:33;;;;;;;13.43;10.30;;;19.80;99.90;;;;;;5075784;28;20920;-65
2022/08/31 09:12:11;;;;;;;14.93;11.30;;;19.90;99.90;;;;;;4999716;28;20865;-65
2022/08/31 09:14:52;;;;;;;9.67;8.67;;;20.20;99.90;;;;;;5013757;28;20506;-65
2022/08/31 09:17:39;;;;;;;13.33;11.63;;;20.50;99.90;;;;;;5062263;28;20934;-64
2022/08/31 09:20:11;;;;;;;8.40;7.63;;;20.70;99.90;;;;;;5075476;28;20438;-64
2022/08/31 09:22:49;;;;;;;10.57;9.37;;;20.90;99.90;;;;;;5075301;28;20551;-64
2022/08/31 09:25:19;;;;;;;9.70;8.53;;;20.60;99.90;;;;;;5075266;28;20930;-65
2022/08/31 09:27:56;;;;;;;8.97;7.90;;;20.50;99.90;;;;;;5074346;28;20444;-64
2022/08/31 09:30:50;;;;;;;18.20;10.27;;;20.40;99.90;;;;;;5075893;28;20467;-64
2022/08/31 09:33:19;;;;;;;10.50;9.40;;;20.30;99.90;;;;;;5075420;28;20460;-64
2022/08/31 09:35:54;;;;;;;9.10;8.20;;;20.20;99.90;;;;;;5075923;28;20480;-68
2022/08/31 09:38:28;;;;;;;10.83;9.73;;;20.30;99.90;;;;;;5075316;28;20432;-64
2022/08/31 09:40:55;;;;;;;12.20;9.40;;;20.50;99.90;;;;;;5075118;28;20476;-64
2022/08/31 09:43:37;;;;;;;8.70;7.07;;;20.60;99.90;;;;;;5075509;28;20523;-65
2022/08/31 09:46:10;;;;;;;11.10;10.00;;;20.80;99.90;;;;;;5075387;28;20488;-64
2022/08/31 09:48:50;;;;;;;13.43;9.20;;;20.80;99.90;;;;;;5075523;28;20785;-64
2022/08/31 09:51:24;;;;;;;10.43;9.33;;;20.50;99.90;;;;;;5074895;28;20464;-64
2022/08/31 09:56:54;;;;;;;10.40;9.30;;;20.30;99.90;;;;;;5075016;28;20411;-65
2022/08/31 09:59:38;;;;;;;10.20;9.13;;;20.30;99.90;;;;;;5075282;28;20489;-64
2022/08/31 10:02:10;;;;;;;8.40;7.67;;;20.30;99.90;;;;;;5074923;28;20981;-65
2022/08/31 10:04:49;;;;;;;11.53;8.20;;;20.40;99.90;;;;;;5075051;28;20425;-64
2022/08/31 10:07:30;;;;;;;10.80;8.90;;;20.50;99.90;;;;;;5074926;28;20980;-66
2022/08/31 10:10:02;;;;;;;14.53;9.00;;;20.40;99.90;;;;;;5074939;28;20536;-66
2022/08/31 10:12:34;;;;;;;10.07;9.10;;;;;;;;;;5075092;28;21020;-65
2022/08/31 10:15:05;;;;;;;9.97;9.03;;;20.20;99.90;;;;;;5074417;28;20907;-65
2022/08/31 10:17:38;;;;;;;9.00;8.20;;;20.20;99.90;;;;;;5074781;28;20524;-65
2022/08/31 10:20:11;;;;;;;10.60;8.47;;;20.30;99.90;;;;;;5074585;28;20460;-65
2022/08/31 10:22:43;;;;;;;9.20;8.30;;;20.30;99.90;;;;;;5074433;28;20966;-65
2022/08/31 10:25:21;;;;;;;9.90;8.33;;;20.40;99.90;;;;;;5074460;28;20483;-65
2022/08/31 10:27:51;;;;;;;13.33;9.50;;;20.40;99.90;;;;;;5074439;28;20433;-66
2022/08/31 10:30:30;;;;;;;9.87;8.30;;;20.90;99.90;;;;;;5074626;28;20433;-65
2022/08/31 10:33:08;;;;;;;9.20;8.20;;;20.90;99.90;;;;;;5074198;28;20425;-65
2022/08/31 10:35:50;;;;;;;11.67;9.30;;;20.60;99.90;;;;;;5074261;28;20428;-65
2022/08/31 10:38:26;;;;;;;10.10;8.10;;;20.70;99.90;;;;;;5074261;28;20762;-65
2022/08/31 10:41:05;;;;;;;13.20;10.57;;;20.90;99.90;;;;;;5074122;28;20917;-65
2022/08/31 10:43:38;;;;;;;9.93;8.93;;;21.00;99.90;;;;;;5073921;28;20487;-65
2022/08/31 10:46:06;;;;;;;8.20;7.50;;;21.10;99.90;;;;;;5073875;28;20504;-65
2022/08/31 10:48:36;;;;;;;7.10;6.57;;;21.20;99.90;;;;;;5073862;28;20444;-66
2022/08/31 10:51:18;;;;;;;8.13;7.33;;;21.10;99.90;;;;;;5073994;28;20495;-65
2022/08/31 10:54:11;;;;;;;9.00;7.43;;;21.20;99.90;;;;;;5073882;28;20471;-64
2022/08/31 10:56:55;;;;;;;7.67;6.97;;;20.90;99.90;;;;;;5073819;28;20425;-65
2022/08/31 10:59:33;;;;;;;7.17;6.47;;;20.90;99.90;;;;;;5074045;28;20439;-64
2022/08/31 11:02:23;;;;;;;9.87;8.87;;;21.00;99.90;;;;;;5073895;28;20488;-64
2022/08/31 11:05:02;;;;;;;7.73;6.93;;;20.90;99.90;;;;;;5073669;28;20429;-66
2022/08/31 11:07:42;;;;;;;10.00;9.00;;;21.20;99.90;;;;;;5073988;28;20845;-65
2022/08/31 11:10:25;;;;;;;8.80;7.83;;;21.10;99.90;;;;;;5073555;28;20409;-65
2022/08/31 11:12:57;;;;;;;7.60;6.43;;;20.90;99.90;;;;;;5073563;28;20501;-65
2022/08/31 11:15:43;;;;;;;9.40;8.43;;;21.30;99.90;;;;;;5073286;28;20515;-66
2022/08/31 11:18:41;;;;;;;9.77;8.87;;;21.30;99.90;;;;;;5073620;28;20436;-65
2022/08/31 11:21:36;;;;;;;13.37;9.80;;;21.10;99.90;;;;;;5073290;28;20460;-65
2022/08/31 11:24:19;;;;;;;9.67;8.50;;;20.90;99.90;;;;;;5073565;28;20431;-66
2022/08/31 11:26:56;;;;;;;10.10;8.57;;;20.60;99.90;;;;;;5073660;28;20436;-66
2022/08/31 11:29:40;;;;;;;11.80;8.67;;;20.60;99.90;;;;;;5073174;28;20439;-65
2022/08/31 11:32:17;;;;;;;10.77;9.30;;;20.40;99.90;;;;;;5073426;28;20460;-64
2022/08/31 11:34:49;;;;;;;8.63;7.93;;;20.30;99.90;;;;;;5073301;28;20515;-65
2022/08/31 11:37:51;;;;;;;12.50;9.17;;;20.70;99.90;;;;;;5073103;28;20464;-64
2022/08/31 11:40:51;;;;;;;8.07;7.07;;;20.50;99.90;;;;;;5072894;28;20448;-65
2022/08/31 11:43:43;;;;;;;12.10;9.17;;;20.90;99.90;;;;;;5073183;28;20568;-66
2022/08/31 11:47:07;;;;;;;12.83;7.90;;;20.80;99.90;;;;;;5072608;28;20475;-64
2022/08/31 11:49:37;;;;;;;10.87;9.77;;;20.80;99.90;;;;;;5072537;28;20443;-64
2022/08/31 11:52:09;;;;;;;11.00;8.93;;;;;;;;;;5073327;28;20453;-64
2022/08/31 11:54:56;;;;;;;11.33;7.67;;;20.90;99.90;;;;;;5073097;28;20469;-65
2022/08/31 11:57:30;;;;;;;11.60;8.60;;;20.90;99.90;;;;;;5073077;28;20516;-64
2022/08/31 12:00:00;;;;;;;9.07;8.27;;;20.70;99.90;;;;;;5073172;28;20427;-64
2022/08/31 12:02:44;;;;;;;9.53;8.50;;;20.80;99.90;;;;;;5072906;28;20578;-64
2022/08/31 12:05:11;;;;;;;11.20;8.60;;;20.50;99.90;;;;;;5071289;28;20548;-64
2022/08/31 12:07:42;;;;;;;10.43;9.43;;;20.40;99.90;;;;;;5072657;28;20448;-64
2022/08/31 12:10:32;;;;;;;9.67;8.67;;;20.50;99.90;;;;;;5073018;28;20429;-65
2022/08/31 12:13:24;;;;;;;9.97;9.07;;;20.60;99.90;;;;;;5072772;28;20516;-65
2022/08/31 12:16:24;;;;;;;8.93;8.13;;;20.60;99.90;;;;;;5072545;28;20451;-64
2022/08/31 12:19:05;;;;;;;15.13;7.87;;;20.40;99.90;;;;;;5067516;28;20480;-64
2022/08/31 12:24:35;;;;;;;9.30;7.73;;;20.70;99.90;;;;;;5072699;28;20409;-65
2022/08/31 12:27:20;;;;;;;10.93;8.00;;;20.90;99.90;;;;;;5072994;28;20448;-64
2022/08/31 12:29:48;;;;;;;8.13;7.33;;;21.00;99.90;;;;;;5072854;28;20420;-64
2022/08/31 12:32:27;;;;;;;9.50;8.17;;;21.30;99.90;;;;;;5072456;28;20525;-64
2022/08/31 12:35:12;;;;;;;11.13;8.17;;;21.40;99.90;;;;;;5072555;28;20428;-65
2022/08/31 12:37:40;;;;;;;9.80;7.47;;;21.50;99.90;;;;;;5072671;28;20425;-64
2022/08/31 12:40:21;;;;;;;11.97;9.17;;;21.60;99.90;;;;;;5072895;28;20459;-64
2022/08/31 12:42:58;;;;;;;10.80;7.27;;;21.60;99.90;;;;;;5072646;28;20456;-64
2022/08/31 12:46:01;;;;;;;8.73;7.97;;;21.80;99.90;;;;;;5072335;28;20428;-64
2022/08/31 12:48:53;;;;;;;12.00;10.23;;;21.90;99.90;;;;;;5072851;28;20514;-64
2022/08/31 12:51:36;;;;;;;9.97;9.17;;;21.70;99.90;;;;;;5072347;28;20456;-64
2022/08/31 12:54:18;;;;;;;9.60;8.70;;;21.60;99.90;;;;;;5072452;28;20507;-65
2022/08/31 12:56:55;;;;;;;9.70;8.70;;;21.80;99.90;;;;;;5072358;28;20468;-65
2022/08/31 12:59:34;;;;;;;10.20;9.27;;;21.90;99.90;;;;;;5072523;28;20407;-64
2022/08/31 13:02:02;;;;;;;8.77;8.00;;;22.00;99.90;;;;;;5074973;28;20545;-65
2022/08/31 13:04:32;;;;;;;9.80;8.40;;;22.10;99.90;;;;;;5076076;28;20444;-65
2022/08/31 13:07:13;;;;;;;8.97;8.17;;;22.00;99.90;;;;;;5076468;28;20440;-64
2022/08/31 13:09:41;;;;;;;8.00;7.30;;;22.20;99.90;;;;;;5075991;28;20435;-64
2022/08/31 13:12:08;;;;;;;12.83;10.40;;;22.50;99.90;;;;;;5076180;28;20549;-64
2022/08/31 13:14:40;;;;;;;8.10;6.90;;;22.60;99.90;;;;;;5075607;28;20448;-65
2022/08/31 13:17:14;;;;;;;10.23;8.00;;;22.60;99.90;;;;;;5075979;28;20433;-65
2022/08/31 13:19:48;;;;;;;10.03;7.77;;;22.70;99.90;;;;;;5076064;28;20440;-64
2022/08/31 13:22:27;;;;;;;10.60;8.23;;;22.50;99.90;;;;;;5075855;28;20496;-64